createdAt,value
2023-02-03T00:00:51.649Z,9.50
2023-02-03T00:03:18.378Z,9.40
2023-02-03T00:05:46.609Z,9.40
2023-02-03T00:08:13.763Z,9.40
2023-02-03T00:10:40.784Z,9.30
2023-02-03T00:13:07.863Z,9.30
2023-02-03T00:15:34.901Z,9.40
2023-02-03T00:18:01.852Z,9.30
2023-02-03T00:20:28.932Z,9.40
2023-02-03T00:23:02.991Z,9.40
2023-02-03T00:25:29.970Z,9.40
2023-02-03T00:27:56.893Z,9.60
2023-02-03T00:30:23.773Z,9.40
2023-02-03T00:32:50.688Z,9.40
2023-02-03T00:35:17.387Z,9.40
2023-02-03T00:37:44.380Z,9.40
2023-02-03T00:40:11.627Z,9.30
2023-02-03T00:42:38.616Z,9.50
2023-02-03T00:45:05.669Z,9.50
2023-02-03T00:47:32.605Z,9.50
2023-02-03T00:49:59.625Z,9.40
2023-02-03T00:52:26.280Z,9.30
2023-02-03T00:54:52.951Z,9.40
2023-02-03T00:57:19.959Z,9.40
2023-02-03T00:59:46.540Z,9.40
2023-02-03T01:02:13.624Z,9.40
2023-02-03T01:04:40.305Z,9.50
2023-02-03T01:07:06.941Z,9.50
2023-02-03T01:09:34.716Z,9.60
2023-02-03T01:12:01.458Z,9.50
2023-02-03T01:14:28.483Z,9.60
2023-02-03T01:16:55.314Z,9.70
2023-02-03T01:19:22.272Z,9.70
2023-02-03T01:21:49.199Z,9.80
2023-02-03T01:24:16.016Z,9.90
2023-02-03T01:26:43.330Z,9.80
2023-02-03T01:29:10.276Z,9.80
2023-02-03T01:31:42.416Z,10.00
2023-02-03T01:34:12.691Z,10.10
2023-02-03T01:36:39.913Z,10.10
2023-02-03T01:39:06.850Z,9.90
2023-02-03T01:41:38.240Z,9.80
2023-02-03T01:44:23.690Z,9.80
2023-02-03T01:46:50.637Z,9.60
2023-02-03T01:49:24.747Z,9.70
2023-02-03T01:51:53.442Z,9.70
2023-02-03T01:54:28.188Z,9.60
2023-02-03T01:56:56.555Z,9.50
2023-02-03T01:59:24.131Z,9.50
2023-02-03T02:01:52.455Z,9.70
2023-02-03T02:04:19.912Z,9.80
2023-02-03T02:06:48.080Z,9.90
2023-02-03T02:09:15.603Z,9.90
2023-02-03T02:11:42.638Z,9.80
2023-02-03T02:14:09.508Z,9.70
2023-02-03T02:16:55.044Z,9.80
2023-02-03T02:19:27.878Z,9.80
2023-02-03T02:22:01.212Z,9.90
2023-02-03T02:24:28.118Z,9.80
2023-02-03T02:27:09.822Z,9.70
2023-02-03T02:29:42.416Z,9.70
2023-02-03T02:32:28.130Z,9.60
2023-02-03T02:34:57.736Z,9.70
2023-02-03T02:37:30.038Z,9.80
2023-02-03T02:40:06.120Z,9.70
2023-02-03T02:42:41.783Z,9.80
2023-02-03T02:45:16.466Z,9.90
2023-02-03T02:47:43.805Z,9.90
2023-02-03T02:50:19.446Z,9.90
2023-02-03T02:52:48.280Z,9.80
2023-02-03T02:55:17.057Z,9.80
2023-02-03T02:57:44.801Z,9.90
2023-02-03T03:00:12.092Z,10.00
2023-02-03T03:02:39.416Z,10.00
2023-02-03T03:05:07.724Z,10.10
2023-02-03T03:07:37.949Z,10.10
2023-02-03T03:10:07.599Z,10.10
2023-02-03T03:12:39.397Z,10.00
2023-02-03T03:15:14.652Z,10.00
2023-02-03T03:17:42.706Z,9.80
2023-02-03T03:20:12.747Z,9.80
2023-02-03T03:22:42.622Z,10.00
2023-02-03T03:25:15.590Z,9.90
2023-02-03T03:27:46.549Z,9.90
2023-02-03T03:30:17.306Z,9.90
2023-02-03T03:32:44.851Z,10.10
2023-02-03T03:35:11.709Z,10.20
2023-02-03T03:37:38.691Z,10.20
2023-02-03T03:40:11.492Z,10.10
2023-02-03T03:42:46.254Z,10.10
2023-02-03T03:45:16.346Z,10.20
2023-02-03T03:47:55.573Z,10.30
2023-02-03T03:50:25.317Z,10.20
2023-02-03T03:52:52.997Z,10.20
2023-02-03T03:55:20.563Z,10.10
2023-02-03T03:57:50.286Z,10.10
2023-02-03T04:00:19.167Z,10.00
2023-02-03T04:02:51.468Z,9.90
2023-02-03T04:05:18.921Z,10.00
2023-02-03T04:07:46.876Z,10.20
2023-02-03T04:10:27.546Z,10.20
2023-02-03T04:12:54.361Z,10.30
2023-02-03T04:15:21.810Z,10.40
2023-02-03T04:17:48.501Z,10.30
2023-02-03T04:20:15.714Z,9.90
2023-02-03T04:22:42.626Z,9.90
2023-02-03T04:25:09.651Z,9.90
2023-02-03T04:27:36.818Z,9.90
2023-02-03T04:30:03.909Z,9.90
2023-02-03T04:32:31.094Z,10.00
2023-02-03T04:34:58.324Z,10.00
2023-02-03T04:37:28.857Z,9.90
2023-02-03T04:39:55.972Z,9.90
2023-02-03T04:42:23.195Z,10.00
2023-02-03T04:44:50.132Z,10.00
2023-02-03T04:47:17.973Z,10.00
2023-02-03T04:49:45.359Z,9.90
2023-02-03T04:52:12.223Z,9.80
2023-02-03T04:54:39.389Z,9.80
2023-02-03T04:57:06.503Z,9.60
2023-02-03T04:59:33.333Z,9.70
2023-02-03T05:02:02.261Z,9.80
2023-02-03T05:04:28.976Z,10.00
2023-02-03T05:06:58.689Z,10.00
2023-02-03T05:09:25.806Z,10.00
2023-02-03T05:11:52.924Z,10.10
2023-02-03T05:14:19.877Z,10.00
2023-02-03T05:16:46.674Z,10.00
2023-02-03T05:19:13.967Z,10.00
2023-02-03T05:21:40.803Z,10.10
2023-02-03T05:24:08.066Z,10.00
2023-02-03T05:26:35.488Z,9.90
2023-02-03T05:29:02.422Z,9.90
2023-02-03T05:31:29.328Z,9.90
2023-02-03T05:33:56.358Z,9.90
2023-02-03T05:36:23.069Z,9.90
2023-02-03T05:38:50.021Z,10.00
2023-02-03T05:41:35.385Z,10.00
2023-02-03T05:44:03.397Z,9.90
2023-02-03T05:46:30.026Z,9.90
2023-02-03T05:48:56.620Z,10.00
2023-02-03T05:51:23.363Z,9.80
2023-02-03T05:53:50.472Z,9.80
2023-02-03T05:56:17.393Z,9.70
2023-02-03T05:58:44.035Z,9.80
2023-02-03T06:01:12.509Z,9.80
2023-02-03T06:03:39.507Z,9.80
2023-02-03T06:06:06.441Z,9.90
2023-02-03T06:08:33.533Z,9.90
2023-02-03T06:11:02.672Z,10.00
2023-02-03T06:13:32.583Z,10.00
2023-02-03T06:15:59.562Z,10.10
2023-02-03T06:18:28.806Z,10.10
2023-02-03T06:20:55.781Z,9.90
2023-02-03T06:23:22.759Z,9.80
2023-02-03T06:25:52.139Z,9.80
2023-02-03T06:28:19.037Z,9.80
2023-02-03T06:30:49.218Z,9.70
2023-02-03T06:33:19.520Z,9.80
2023-02-03T06:35:46.647Z,9.80
2023-02-03T06:38:13.632Z,9.80
2023-02-03T06:40:40.629Z,9.70
2023-02-03T06:43:07.288Z,9.80
2023-02-03T06:45:34.571Z,9.90
2023-02-03T06:48:01.421Z,10.00
2023-02-03T06:50:28.812Z,10.00
2023-02-03T06:52:55.894Z,10.10
2023-02-03T06:55:22.563Z,10.10
2023-02-03T06:57:49.611Z,10.10
2023-02-03T07:00:18.993Z,10.00
2023-02-03T07:02:46.860Z,10.00
2023-02-03T07:05:14.042Z,9.90
2023-02-03T07:07:40.865Z,9.90
2023-02-03T07:10:07.965Z,10.00
2023-02-03T07:12:36.593Z,10.10
2023-02-03T07:15:06.363Z,10.10
2023-02-03T07:17:33.108Z,10.10
2023-02-03T07:19:59.770Z,10.00
2023-02-03T07:22:27.736Z,10.10
2023-02-03T07:24:54.646Z,10.10
2023-02-03T07:27:21.381Z,10.10
2023-02-03T07:29:48.045Z,10.10
2023-02-03T07:32:15.031Z,10.20
2023-02-03T07:34:42.042Z,10.20
2023-02-03T07:37:08.714Z,10.00
2023-02-03T07:39:35.365Z,9.90
2023-02-03T07:42:02.421Z,9.90
2023-02-03T07:44:29.421Z,9.90
2023-02-03T07:46:56.128Z,9.80
2023-02-03T07:49:23.153Z,9.90
2023-02-03T07:51:50.066Z,9.90
2023-02-03T07:54:16.852Z,9.90
2023-02-03T07:56:43.885Z,10.00
2023-02-03T07:59:10.973Z,10.00
2023-02-03T08:01:38.049Z,9.90
2023-02-03T08:04:05.602Z,10.00
2023-02-03T08:06:32.727Z,10.10
2023-02-03T08:08:59.524Z,10.10
2023-02-03T08:11:26.603Z,10.10
2023-02-03T08:13:53.682Z,10.10
2023-02-03T08:16:20.556Z,10.00
2023-02-03T08:18:47.300Z,9.80
2023-02-03T08:21:14.011Z,9.90
2023-02-03T08:23:40.592Z,10.00
2023-02-03T08:26:07.639Z,10.10
2023-02-03T08:28:34.246Z,10.20
2023-02-03T08:31:01.000Z,10.20
2023-02-03T08:33:28.860Z,10.40
2023-02-03T08:38:41.858Z,10.40
2023-02-03T08:41:10.100Z,10.50
2023-02-03T08:43:37.301Z,10.50
2023-02-03T08:46:06.817Z,10.50
2023-02-03T08:48:33.671Z,10.50
2023-02-03T08:51:01.615Z,10.60
2023-02-03T08:53:28.536Z,10.60
2023-02-03T08:55:56.414Z,10.60
2023-02-03T08:58:23.434Z,10.70
2023-02-03T09:00:53.081Z,10.80
2023-02-03T09:03:20.098Z,10.80
2023-02-03T09:05:47.061Z,10.90
2023-02-03T09:08:14.152Z,10.90
2023-02-03T09:10:41.162Z,11.00
2023-02-03T09:13:08.185Z,11.10
2023-02-03T09:15:35.203Z,11.10
2023-02-03T09:18:01.852Z,11.10
2023-02-03T09:20:29.354Z,11.10
2023-02-03T09:22:59.496Z,11.10
2023-02-03T09:25:26.357Z,11.10
2023-02-03T09:27:53.405Z,11.10
2023-02-03T09:30:20.234Z,11.10
2023-02-03T09:32:51.401Z,11.20
2023-02-03T09:35:19.526Z,11.10
2023-02-03T09:37:46.736Z,11.10
2023-02-03T09:40:18.747Z,11.20
2023-02-03T09:42:45.418Z,11.10
2023-02-03T09:45:23.716Z,11.10
2023-02-03T09:47:55.270Z,11.10
2023-02-03T09:50:24.226Z,11.20
2023-02-03T09:52:52.344Z,11.20
2023-02-03T09:55:19.091Z,11.30
2023-02-03T09:58:01.806Z,11.30
2023-02-03T10:00:51.911Z,11.20
2023-02-03T10:03:37.264Z,11.20
2023-02-03T10:06:12.793Z,11.10
2023-02-03T10:09:03.889Z,11.00
2023-02-03T10:11:49.804Z,11.10
2023-02-03T10:14:16.594Z,11.10
2023-02-03T10:16:51.608Z,11.20
2023-02-03T10:19:23.931Z,11.20
2023-02-03T10:21:55.367Z,11.30
2023-02-03T10:24:28.550Z,11.40
2023-02-03T10:26:55.713Z,11.40
2023-02-03T10:29:35.149Z,11.50
2023-02-03T10:32:02.610Z,11.70
2023-02-03T10:34:29.521Z,11.80
2023-02-03T10:37:03.020Z,11.80
2023-02-03T10:39:35.712Z,11.80
2023-02-03T10:42:04.408Z,11.80
2023-02-03T10:44:39.443Z,11.90
2023-02-03T10:47:18.264Z,12.10
2023-02-03T10:49:45.928Z,12.10
2023-02-03T10:52:25.288Z,12.30
2023-02-03T10:54:53.029Z,12.20
2023-02-03T10:57:20.061Z,12.10
2023-02-03T10:59:47.920Z,12.00
2023-02-03T11:02:30.716Z,12.10
2023-02-03T11:05:16.230Z,12.10
2023-02-03T11:07:43.432Z,12.10
2023-02-03T11:10:43.868Z,12.10
2023-02-03T11:13:24.434Z,12.20
2023-02-03T11:15:55.941Z,12.10
2023-02-03T11:18:41.593Z,12.10
2023-02-03T11:21:08.669Z,12.10
2023-02-03T11:23:35.594Z,11.90
2023-02-03T11:26:12.951Z,11.90
2023-02-03T11:28:42.597Z,11.80
2023-02-03T11:31:17.757Z,11.90
2023-02-03T11:33:47.571Z,12.00
2023-02-03T11:36:14.352Z,12.00
2023-02-03T11:38:42.757Z,12.00
2023-02-03T11:41:16.397Z,12.00
2023-02-03T11:43:43.372Z,12.00
2023-02-03T11:46:10.352Z,11.90
2023-02-03T11:48:38.777Z,11.70
2023-02-03T11:51:05.629Z,11.70
2023-02-03T11:53:55.154Z,11.80
2023-02-03T11:56:26.351Z,11.90
2023-02-03T11:58:55.849Z,12.00
2023-02-03T12:01:38.143Z,11.90
2023-02-03T12:04:23.490Z,11.90
2023-02-03T12:07:09.350Z,11.90
2023-02-03T12:09:54.874Z,12.00
2023-02-03T12:12:30.932Z,12.00
2023-02-03T12:15:03.774Z,11.90
2023-02-03T12:17:36.904Z,12.00
2023-02-03T12:20:03.575Z,12.00
2023-02-03T12:22:36.530Z,12.10
2023-02-03T12:25:22.155Z,12.10
2023-02-03T12:28:07.740Z,12.20
2023-02-03T12:30:39.617Z,12.20
2023-02-03T12:33:32.822Z,12.20
2023-02-03T12:36:09.486Z,12.30
2023-02-03T12:38:39.297Z,12.40
2023-02-03T12:41:13.212Z,12.50
2023-02-03T12:43:49.139Z,12.60
2023-02-03T12:46:16.176Z,12.60
2023-02-03T12:48:46.011Z,12.50
2023-02-03T12:51:16.903Z,12.50
2023-02-03T12:53:55.188Z,12.30
2023-02-03T12:56:24.584Z,12.40
2023-02-03T12:58:57.435Z,12.40
2023-02-03T13:01:24.264Z,12.40
2023-02-03T13:03:54.460Z,12.30
2023-02-03T13:06:24.346Z,12.40
2023-02-03T13:08:57.238Z,12.50
2023-02-03T13:11:42.209Z,12.50
2023-02-03T13:14:21.201Z,12.60
2023-02-03T13:16:53.450Z,12.70
2023-02-03T13:19:27.855Z,12.70
2023-02-03T13:21:54.578Z,12.70
2023-02-03T13:24:24.852Z,12.70
2023-02-03T13:27:07.094Z,12.60
2023-02-03T13:29:39.710Z,12.60
2023-02-03T13:32:06.555Z,12.60
2023-02-03T13:34:37.078Z,12.60
2023-02-03T13:37:23.282Z,12.50
2023-02-03T13:40:00.569Z,12.60
2023-02-03T13:42:29.708Z,12.70
2023-02-03T13:45:19.718Z,12.60
2023-02-03T13:47:52.005Z,12.80
2023-02-03T13:50:29.022Z,13.00
2023-02-03T13:52:59.363Z,13.00
2023-02-03T13:55:29.853Z,13.00
2023-02-03T13:57:57.039Z,12.90
2023-02-03T14:00:42.184Z,12.90
2023-02-03T14:03:19.872Z,13.10
2023-02-03T14:05:52.178Z,13.10
2023-02-03T14:08:25.234Z,13.10
2023-02-03T14:11:10.647Z,13.10
2023-02-03T14:13:38.640Z,13.10
2023-02-03T14:16:15.528Z,13.20
2023-02-03T14:18:46.101Z,13.20
2023-02-03T14:21:16.265Z,13.30
2023-02-03T14:23:49.260Z,13.30
2023-02-03T14:26:30.039Z,13.40
2023-02-03T14:28:57.196Z,13.20
2023-02-03T14:31:25.178Z,13.30
2023-02-03T14:34:07.867Z,13.10
2023-02-03T14:36:36.424Z,13.20
2023-02-03T14:39:23.448Z,13.10
2023-02-03T14:42:02.502Z,13.20
2023-02-03T14:44:34.661Z,13.10
2023-02-03T14:47:09.277Z,13.20
2023-02-03T14:49:54.921Z,13.30
2023-02-03T14:52:28.037Z,13.40
2023-02-03T14:54:55.056Z,13.20
2023-02-03T14:57:52.043Z,13.30
2023-02-03T15:00:22.436Z,13.30
2023-02-03T15:03:10.477Z,13.20
2023-02-03T15:05:38.313Z,13.20
2023-02-03T15:08:05.355Z,13.20
2023-02-03T15:10:43.679Z,12.90
2023-02-03T15:13:30.443Z,12.80
2023-02-03T15:16:02.493Z,13.00
2023-02-03T15:18:31.380Z,12.70
2023-02-03T15:20:58.476Z,12.20
2023-02-03T15:23:30.043Z,12.20
2023-02-03T15:25:57.777Z,12.20
2023-02-03T15:28:25.721Z,12.30
2023-02-03T15:30:55.818Z,12.30
2023-02-03T15:33:23.189Z,12.10
2023-02-03T15:35:52.354Z,12.00
2023-02-03T15:38:28.744Z,12.10
2023-02-03T15:40:58.728Z,12.10
2023-02-03T15:43:31.724Z,12.10
2023-02-03T15:46:02.407Z,12.10
2023-02-03T15:48:30.508Z,12.20
2023-02-03T15:51:01.187Z,12.20
2023-02-03T15:53:46.791Z,12.20
2023-02-03T15:56:27.093Z,12.30
2023-02-03T15:58:54.106Z,12.30
2023-02-03T16:01:23.183Z,12.40
2023-02-03T16:03:54.063Z,12.30
2023-02-03T16:06:35.858Z,12.40
2023-02-03T16:09:03.319Z,12.50
2023-02-03T16:11:33.149Z,12.50
2023-02-03T16:14:01.626Z,12.50
2023-02-03T16:16:32.969Z,12.50
2023-02-03T16:19:05.526Z,12.60
2023-02-03T16:21:32.391Z,12.60
2023-02-03T16:23:59.536Z,12.50
2023-02-03T16:26:27.815Z,12.60
2023-02-03T16:29:16.036Z,12.60
2023-02-03T16:32:03.288Z,12.60
2023-02-03T16:34:48.724Z,12.60
2023-02-03T16:37:41.932Z,12.50
2023-02-03T16:40:29.032Z,12.50
2023-02-03T16:43:17.616Z,12.50
2023-02-03T16:46:02.926Z,12.50
2023-02-03T16:48:48.465Z,12.50
2023-02-03T16:51:16.671Z,12.60
2023-02-03T16:53:44.751Z,12.60
2023-02-03T16:56:12.224Z,12.60
2023-02-03T16:58:39.145Z,12.60
2023-02-03T17:01:06.768Z,12.50
2023-02-03T17:03:34.893Z,12.40
2023-02-03T17:06:06.024Z,12.50
2023-02-03T17:08:32.997Z,12.30
2023-02-03T17:11:08.539Z,12.40
2023-02-03T17:13:38.538Z,12.20
2023-02-03T17:16:11.066Z,12.20
2023-02-03T17:18:39.285Z,12.10
2023-02-03T17:21:11.721Z,12.10
2023-02-03T17:23:38.575Z,12.10
2023-02-03T17:26:05.870Z,12.10
2023-02-03T17:28:34.877Z,12.20
2023-02-03T17:31:05.048Z,12.30
2023-02-03T17:33:32.502Z,12.30
2023-02-03T17:36:10.523Z,12.20
2023-02-03T17:55:09.335Z,12.00
2023-02-03T17:57:39.290Z,12.00
2023-02-03T18:00:06.634Z,11.90
2023-02-03T18:02:33.676Z,11.70
2023-02-03T18:05:00.736Z,11.70
2023-02-03T18:07:27.739Z,11.60
2023-02-03T18:09:54.434Z,11.50
2023-02-03T18:12:21.423Z,11.50
2023-02-03T18:14:51.029Z,11.40
2023-02-03T18:17:18.165Z,11.40
2023-02-03T18:19:54.779Z,11.40
2023-02-03T18:22:22.371Z,11.50
2023-02-03T18:24:52.527Z,11.60
2023-02-03T18:27:19.694Z,11.60
2023-02-03T18:29:47.241Z,11.60
2023-02-03T18:32:15.273Z,11.60
2023-02-03T18:34:42.179Z,11.70
2023-02-03T18:37:09.949Z,11.70
2023-02-03T18:39:36.966Z,11.50
2023-02-03T18:42:14.259Z,11.50
2023-02-03T18:44:44.431Z,11.50
2023-02-03T18:47:11.351Z,11.50
2023-02-03T18:49:38.462Z,11.60
2023-02-03T18:52:06.862Z,11.60
2023-02-03T18:54:33.653Z,11.70
2023-02-03T18:57:04.052Z,11.60
2023-02-03T18:59:30.700Z,11.50
2023-02-03T19:01:58.535Z,11.50
2023-02-03T19:04:25.474Z,11.50
2023-02-03T19:06:52.694Z,11.50
2023-02-03T19:09:22.211Z,11.20
2023-02-03T19:11:49.205Z,11.20
2023-02-03T19:14:16.553Z,11.20
2023-02-03T19:16:43.446Z,11.30
2023-02-03T19:19:12.469Z,11.20
2023-02-03T19:21:39.370Z,11.20
2023-02-03T19:24:07.236Z,11.20
2023-02-03T19:26:34.553Z,11.20
2023-02-03T19:29:02.595Z,11.30
2023-02-03T19:31:29.684Z,11.20
2023-02-03T19:33:58.793Z,11.10
2023-02-03T19:36:26.880Z,11.20
2023-02-03T19:38:53.692Z,11.20
2023-02-03T19:41:21.471Z,11.20
2023-02-03T19:43:51.884Z,11.30
2023-02-03T19:46:21.725Z,11.20
2023-02-03T19:48:48.880Z,11.30
2023-02-03T19:51:16.016Z,11.20
2023-02-03T19:53:42.883Z,11.00
2023-02-03T19:56:09.959Z,11.10
2023-02-03T19:58:38.561Z,11.20
2023-02-03T20:01:05.648Z,11.10
2023-02-03T20:03:32.666Z,11.00
2023-02-03T20:06:00.951Z,11.00
2023-02-03T20:08:28.196Z,11.00
2023-02-03T20:10:56.082Z,11.10
2023-02-03T20:13:22.941Z,11.00
2023-02-03T20:15:49.674Z,11.00
2023-02-03T20:18:17.501Z,11.00
2023-02-03T20:20:44.508Z,10.90
2023-02-03T20:23:11.536Z,11.00
2023-02-03T20:25:38.227Z,11.00
2023-02-03T20:28:05.345Z,11.00
2023-02-03T20:30:32.701Z,11.10
2023-02-03T20:32:59.960Z,10.90
2023-02-03T20:35:34.066Z,11.00
2023-02-03T20:38:00.807Z,11.10
2023-02-03T20:40:30.592Z,11.10
2023-02-03T20:43:05.950Z,11.10
2023-02-03T20:45:38.207Z,11.10
2023-02-03T20:48:05.980Z,11.10
2023-02-03T20:50:41.930Z,11.10
2023-02-03T20:53:13.497Z,11.10
2023-02-03T20:55:41.014Z,11.00
2023-02-03T20:58:18.287Z,11.10
2023-02-03T21:00:45.151Z,11.00
2023-02-03T21:03:32.391Z,11.00
2023-02-03T21:06:00.259Z,11.10
2023-02-03T21:08:28.125Z,11.20
2023-02-03T21:10:57.961Z,11.20
2023-02-03T21:13:29.156Z,11.10
2023-02-03T21:15:59.962Z,11.10
2023-02-03T21:18:29.571Z,11.10
2023-02-03T21:20:59.082Z,11.10
2023-02-03T21:23:28.180Z,11.10
2023-02-03T21:25:55.185Z,11.10
2023-02-03T21:28:24.597Z,11.10
2023-02-03T21:30:51.649Z,11.00
2023-02-03T21:33:28.909Z,11.00
2023-02-03T21:35:55.896Z,10.80
2023-02-03T21:38:25.778Z,10.80
2023-02-03T21:40:52.448Z,10.80
2023-02-03T21:43:19.471Z,11.00
2023-02-03T21:45:46.165Z,11.10
2023-02-03T21:48:19.320Z,11.10
2023-02-03T21:50:46.413Z,11.00
2023-02-03T21:53:13.442Z,11.00
2023-02-03T21:55:42.219Z,11.00
2023-02-03T21:58:11.976Z,11.00
2023-02-03T22:00:40.528Z,10.90
2023-02-03T22:03:15.320Z,10.90
2023-02-03T22:05:42.162Z,10.70
2023-02-03T22:08:19.614Z,10.80
2023-02-03T22:10:46.775Z,10.90
2023-02-03T22:13:13.826Z,11.00
2023-02-03T22:15:41.364Z,11.10
2023-02-03T22:18:09.339Z,11.10
2023-02-03T22:20:36.352Z,11.20
2023-02-03T22:23:05.910Z,11.20
2023-02-03T22:25:32.979Z,11.20
2023-02-03T22:27:59.960Z,11.20
2023-02-03T22:30:27.021Z,11.20
2023-02-03T22:32:54.095Z,11.20
2023-02-03T22:35:21.940Z,11.20
2023-02-03T22:37:50.390Z,11.30
2023-02-03T22:40:17.313Z,11.20
2023-02-03T22:42:47.228Z,11.20
2023-02-03T22:45:14.825Z,11.20
2023-02-03T22:47:41.772Z,11.30
2023-02-03T22:50:09.454Z,11.40
2023-02-03T22:52:36.180Z,11.40
2023-02-03T22:55:03.416Z,11.50
2023-02-03T22:57:30.295Z,11.40
2023-02-03T22:59:56.970Z,11.30
2023-02-03T23:02:23.672Z,11.30
2023-02-03T23:04:50.634Z,11.30
2023-02-03T23:07:18.052Z,11.20
2023-02-03T23:09:45.090Z,11.20
2023-02-03T23:12:15.956Z,11.20
2023-02-03T23:14:42.914Z,11.10
2023-02-03T23:17:09.931Z,11.20
2023-02-03T23:19:37.778Z,11.20
2023-02-03T23:22:04.622Z,11.20
2023-02-03T23:24:31.807Z,11.30
2023-02-03T23:26:58.525Z,11.40
2023-02-03T23:29:25.168Z,11.30
2023-02-03T23:31:51.825Z,11.30
2023-02-03T23:34:37.492Z,11.20
2023-02-03T23:37:04.320Z,11.20
2023-02-03T23:39:31.137Z,11.20
2023-02-03T23:41:58.201Z,11.20
2023-02-03T23:44:25.090Z,11.10
2023-02-03T23:46:52.166Z,11.00
2023-02-03T23:49:19.129Z,11.00
2023-02-03T23:51:45.763Z,11.10
2023-02-03T23:54:12.447Z,11.30
2023-02-03T23:56:39.483Z,11.30
2023-02-03T23:59:06.137Z,11.40
